Aéroclub Castres-Mazamet
ACCUEIL




METAR
LFCK 211430Z AUTO 29011KT 260V340 9999 BKN035 BKN044 BKN050 19/11 Q1018 NOSIG



Liens utiles
F.F.A
Météo France
OLIVIA
SIA
D.G.A.C
Bienvenue à l'aéroclub de Castres-Mazamet


               





Actualités

 Assemblée Générale   
Publié le 06-Jan-2019    
L'AG du club aura lieu le vendredi 15 février 2019


Voir plus